createdAt,value
2018-05-04T00:00:12.638Z,19.40
2018-05-04T00:01:12.646Z,19.30
2018-05-04T00:02:12.673Z,19.35
2018-05-04T00:03:12.657Z,19.34
2018-05-04T00:04:12.684Z,19.40
2018-05-04T00:05:12.666Z,19.39
2018-05-04T00:06:12.673Z,19.52
2018-05-04T00:07:12.692Z,19.43
2018-05-04T00:08:12.712Z,19.45
2018-05-04T00:09:12.730Z,19.35
2018-05-04T00:10:12.846Z,19.34
2018-05-04T00:11:12.783Z,19.32
2018-05-04T00:12:12.740Z,19.40
2018-05-04T00:13:12.792Z,19.38
2018-05-04T00:14:12.802Z,19.34
2018-05-04T00:15:13.327Z,19.32
2018-05-04T00:16:12.790Z,19.34
2018-05-04T00:17:12.856Z,19.23
2018-05-04T00:18:12.826Z,19.23
2018-05-04T00:19:12.833Z,19.28
2018-05-04T00:21:12.851Z,19.15
2018-05-04T00:22:12.875Z,19.23
2018-05-04T00:23:12.963Z,19.16
2018-05-04T00:24:12.926Z,19.15
2018-05-04T00:25:12.894Z,19.20
2018-05-04T00:26:12.989Z,19.06
2018-05-04T00:27:12.981Z,19.09
2018-05-04T00:28:12.949Z,19.10
2018-05-04T00:29:12.954Z,19.13
2018-05-04T00:31:13.010Z,19.15
2018-05-04T00:32:13.122Z,18.99
2018-05-04T00:33:12.986Z,18.99
2018-05-04T00:34:12.995Z,19.09
2018-05-04T00:35:13.011Z,19.05
2018-05-04T00:36:13.013Z,19.13
2018-05-04T00:37:13.048Z,18.99
2018-05-04T00:38:13.240Z,19.01
2018-05-04T00:39:13.083Z,18.94
2018-05-04T00:40:13.078Z,18.99
2018-05-04T00:41:13.112Z,18.94
2018-05-04T00:42:13.088Z,18.84
2018-05-04T00:43:13.117Z,18.84
2018-05-04T00:44:13.133Z,18.87
2018-05-04T00:45:13.166Z,18.79
2018-05-04T00:46:13.145Z,18.84
2018-05-04T00:47:13.154Z,18.86
2018-05-04T00:48:13.215Z,18.83
2018-05-04T00:49:13.213Z,18.74
2018-05-04T00:50:13.273Z,18.72
2018-05-04T00:51:13.223Z,18.68
2018-05-04T00:52:13.219Z,18.69
2018-05-04T00:53:13.197Z,18.71
2018-05-04T00:54:13.244Z,18.59
2018-05-04T00:55:13.248Z,18.62
2018-05-04T00:56:13.363Z,18.60
2018-05-04T00:57:13.276Z,18.50
2018-05-04T00:58:13.278Z,18.51
2018-05-04T00:59:13.266Z,18.44
2018-05-04T01:00:13.337Z,18.47
2018-05-04T01:01:13.281Z,18.41
2018-05-04T01:02:13.360Z,18.44
2018-05-04T01:03:13.372Z,18.32
2018-05-04T01:04:13.319Z,18.29
2018-05-04T01:05:13.396Z,18.29
2018-05-04T01:06:13.385Z,18.28
2018-05-04T01:07:13.378Z,18.34
2018-05-04T01:08:13.396Z,18.23
2018-05-04T01:10:13.379Z,18.17
2018-05-04T01:11:13.419Z,18.14
2018-05-04T01:12:13.435Z,18.13
2018-05-04T01:13:13.436Z,18.13
2018-05-04T01:14:13.454Z,18.09
2018-05-04T01:15:13.503Z,18.07
2018-05-04T01:16:13.453Z,18.11
2018-05-04T01:17:13.517Z,18.13
2018-05-04T01:18:13.487Z,18.07
2018-05-04T01:20:13.593Z,18.04
2018-05-04T01:21:13.529Z,18.02
2018-05-04T01:22:13.718Z,18.04
2018-05-04T01:23:13.625Z,17.92
2018-05-04T01:24:13.626Z,18.04
2018-05-04T01:25:13.612Z,17.89
2018-05-04T01:26:13.641Z,17.81
2018-05-04T01:27:13.576Z,17.86
2018-05-04T01:28:13.647Z,17.76
2018-05-04T01:29:13.596Z,17.77
2018-05-04T01:30:13.648Z,17.83
2018-05-04T01:31:13.609Z,17.77
2018-05-04T01:32:13.796Z,17.86
2018-05-04T01:33:13.820Z,17.79
2018-05-04T01:34:13.628Z,17.83
2018-05-04T01:35:13.679Z,17.77
2018-05-04T01:36:13.747Z,17.79
2018-05-04T01:37:13.849Z,17.81
2018-05-04T01:39:13.706Z,17.73
2018-05-04T01:40:13.706Z,17.58
2018-05-04T01:42:13.775Z,17.76
2018-05-04T01:43:14.024Z,17.76
2018-05-04T01:44:13.769Z,17.66
2018-05-04T01:45:13.779Z,17.63
2018-05-04T01:46:13.850Z,17.76
2018-05-04T01:47:13.854Z,17.66
2018-05-04T01:48:13.806Z,17.66
2018-05-04T01:49:13.839Z,17.65
2018-05-04T01:50:13.824Z,17.74
2018-05-04T01:51:13.816Z,17.66
2018-05-04T01:52:13.877Z,17.62
2018-05-04T01:53:13.927Z,17.63
2018-05-04T01:54:13.868Z,17.65
2018-05-04T01:55:14.014Z,17.63
2018-05-04T01:56:13.887Z,17.57
2018-05-04T01:57:13.867Z,17.49
2018-05-04T01:58:13.897Z,17.60
2018-05-04T01:59:13.906Z,17.38
2018-05-04T02:00:13.948Z,17.46
2018-05-04T02:01:13.917Z,17.54
2018-05-04T02:02:13.941Z,17.46
2018-05-04T02:03:14.034Z,17.51
2018-05-04T02:04:13.967Z,17.49
2018-05-04T02:05:13.969Z,17.45
2018-05-04T02:06:13.986Z,17.47
2018-05-04T02:07:13.990Z,17.36
2018-05-04T02:08:13.999Z,17.33
2018-05-04T02:10:14.095Z,17.25
2018-05-04T02:11:14.052Z,17.25
2018-05-04T02:12:14.043Z,17.35
2018-05-04T02:13:14.034Z,17.28
2018-05-04T02:14:14.127Z,17.32
2018-05-04T02:15:14.102Z,17.36
2018-05-04T02:16:14.096Z,17.33
2018-05-04T02:17:14.112Z,17.24
2018-05-04T02:18:14.082Z,17.21
2018-05-04T02:19:14.102Z,17.25
2018-05-04T02:20:14.119Z,17.18
2018-05-04T02:21:14.127Z,17.22
2018-05-04T02:22:14.151Z,17.24
2018-05-04T02:23:14.151Z,17.21
2018-05-04T02:25:14.164Z,17.21
2018-05-04T02:26:14.187Z,17.18
2018-05-04T02:27:14.183Z,17.14
2018-05-04T02:28:14.202Z,17.15
2018-05-04T02:29:14.246Z,17.18
2018-05-04T02:30:14.212Z,17.03
2018-05-04T02:31:14.238Z,17.15
2018-05-04T02:32:14.270Z,17.14
2018-05-04T02:33:14.241Z,16.90
2018-05-04T02:34:14.313Z,16.92
2018-05-04T02:35:14.287Z,17.02
2018-05-04T02:36:14.314Z,17.05
2018-05-04T02:37:14.294Z,16.99
2018-05-04T02:38:14.328Z,16.96
2018-05-04T02:39:14.301Z,16.95
2018-05-04T02:40:14.319Z,16.92
2018-05-04T02:41:14.323Z,16.78
2018-05-04T02:42:14.395Z,16.78
2018-05-04T02:43:14.392Z,16.84
2018-05-04T02:44:14.395Z,16.80
2018-05-04T02:45:14.414Z,16.87
2018-05-04T02:46:14.453Z,16.82
2018-05-04T02:47:14.423Z,16.85
2018-05-04T02:48:14.392Z,16.78
2018-05-04T02:49:14.433Z,16.77
2018-05-04T02:50:14.406Z,16.75
2018-05-04T02:51:14.456Z,16.65
2018-05-04T02:52:14.421Z,16.66
2018-05-04T02:53:14.449Z,16.70
2018-05-04T02:54:14.452Z,16.66
2018-05-04T02:55:14.499Z,16.65
2018-05-04T02:56:14.548Z,16.60
2018-05-04T02:57:14.483Z,16.72
2018-05-04T02:58:14.523Z,16.73
2018-05-04T02:59:14.498Z,16.72
2018-05-04T03:01:14.515Z,16.75
2018-05-04T03:02:14.536Z,16.69
2018-05-04T03:03:14.556Z,16.78
2018-05-04T03:04:14.651Z,16.67
2018-05-04T03:05:14.571Z,16.77
2018-05-04T03:06:14.621Z,16.73
2018-05-04T03:07:14.574Z,16.72
2018-05-04T03:08:14.601Z,16.66
2018-05-04T03:09:14.601Z,16.73
2018-05-04T03:10:14.640Z,16.67
2018-05-04T03:11:14.631Z,16.77
2018-05-04T03:12:14.676Z,16.80
2018-05-04T03:13:14.672Z,16.80
2018-05-04T03:14:14.634Z,16.72
2018-05-04T03:15:14.646Z,16.77
2018-05-04T03:16:14.679Z,16.73
2018-05-04T03:17:14.729Z,16.70
2018-05-04T03:18:14.690Z,16.77
2018-05-04T03:19:14.712Z,16.66
2018-05-04T03:20:14.715Z,16.73
2018-05-04T03:21:14.730Z,16.69
2018-05-04T03:22:14.735Z,16.77
2018-05-04T03:23:14.732Z,16.77
2018-05-04T03:24:14.804Z,16.84
2018-05-04T03:25:14.749Z,16.72
2018-05-04T03:27:14.764Z,16.75
2018-05-04T03:28:14.779Z,16.72
2018-05-04T03:29:14.807Z,16.70
2018-05-04T03:30:14.991Z,16.75
2018-05-04T03:31:14.857Z,16.67
2018-05-04T03:32:14.820Z,16.55
2018-05-04T03:33:14.850Z,16.55
2018-05-04T03:34:14.841Z,16.62
2018-05-04T03:35:14.850Z,16.72
2018-05-04T03:36:14.916Z,16.59
2018-05-04T03:37:14.886Z,16.57
2018-05-04T03:38:14.861Z,16.67
2018-05-04T03:39:14.956Z,16.55
2018-05-04T03:40:14.908Z,16.59
2018-05-04T03:41:15.004Z,16.62
2018-05-04T03:42:14.954Z,16.59
2018-05-04T03:43:14.973Z,16.62
2018-05-04T03:44:14.919Z,16.60
2018-05-04T03:45:14.983Z,16.62
2018-05-04T03:46:15.024Z,16.57
2018-05-04T03:47:14.975Z,16.45
2018-05-04T03:48:15.012Z,16.48
2018-05-04T03:49:15.024Z,16.45
2018-05-04T03:50:14.990Z,16.50
2018-05-04T03:51:15.042Z,16.47
2018-05-04T03:52:15.043Z,16.48
2018-05-04T03:53:15.062Z,16.48
2018-05-04T03:54:15.022Z,16.45
2018-05-04T03:55:15.057Z,16.48
2018-05-04T03:56:15.035Z,16.52
2018-05-04T03:58:15.069Z,16.51
2018-05-04T03:59:15.130Z,16.47
2018-05-04T04:00:15.069Z,16.47
2018-05-04T04:01:15.219Z,16.42
2018-05-04T04:02:15.110Z,16.37
2018-05-04T04:03:15.135Z,16.37
2018-05-04T04:04:15.126Z,16.52
2018-05-04T04:05:15.132Z,16.50
2018-05-04T04:06:15.142Z,16.48
2018-05-04T04:08:15.163Z,16.50
2018-05-04T04:09:15.174Z,16.48
2018-05-04T04:10:15.240Z,16.55
2018-05-04T04:11:15.182Z,16.40
2018-05-04T04:12:15.269Z,16.42
2018-05-04T04:13:15.217Z,16.40
2018-05-04T04:14:15.286Z,16.32
2018-05-04T04:15:15.410Z,16.36
2018-05-04T04:16:15.236Z,16.34
2018-05-04T04:17:15.266Z,16.51
2018-05-04T04:18:15.317Z,16.50
2018-05-04T04:19:15.299Z,16.45
2018-05-04T04:20:15.282Z,16.45
2018-05-04T04:21:15.288Z,16.48
2018-05-04T04:22:15.357Z,16.42
2018-05-04T04:23:15.291Z,16.48
2018-05-04T04:24:15.344Z,16.48
2018-05-04T04:25:15.308Z,16.47
2018-05-04T04:26:15.347Z,16.51
2018-05-04T04:27:15.374Z,16.60
2018-05-04T04:28:15.399Z,16.55
2018-05-04T04:29:15.358Z,16.60
2018-05-04T04:30:15.356Z,16.57
2018-05-04T04:32:15.457Z,16.78
2018-05-04T04:33:15.400Z,16.75
2018-05-04T04:34:15.384Z,16.80
2018-05-04T04:35:15.451Z,16.70
2018-05-04T04:36:15.412Z,16.75
2018-05-04T04:37:15.439Z,16.70
2018-05-04T04:38:15.427Z,16.70
2018-05-04T04:39:15.468Z,16.87
2018-05-04T04:40:15.495Z,16.85
2018-05-04T04:41:15.475Z,16.91
2018-05-04T04:42:15.465Z,16.87
2018-05-04T04:43:15.468Z,16.91
2018-05-04T04:44:15.484Z,16.85
2018-05-04T04:45:15.661Z,17.02
2018-05-04T04:46:15.614Z,16.92
2018-05-04T04:47:15.542Z,16.95
2018-05-04T04:48:15.541Z,16.92
2018-05-04T04:49:15.812Z,17.10
2018-05-04T04:50:15.581Z,17.17
2018-05-04T04:51:15.570Z,17.14
2018-05-04T04:52:15.580Z,17.17
2018-05-04T04:53:15.585Z,17.22
2018-05-04T04:54:15.597Z,17.21
2018-05-04T04:55:15.607Z,17.22
2018-05-04T04:56:15.611Z,17.33
2018-05-04T04:57:15.615Z,17.30
2018-05-04T04:58:15.681Z,17.38
2018-05-04T04:59:15.626Z,17.40
2018-05-04T05:00:15.660Z,17.47
2018-05-04T05:01:15.772Z,17.58
2018-05-04T05:02:15.693Z,17.60
2018-05-04T05:04:15.709Z,17.51
2018-05-04T05:05:15.832Z,17.42
2018-05-04T05:06:15.719Z,17.43
2018-05-04T05:07:15.861Z,17.38
2018-05-04T05:08:15.744Z,17.45
2018-05-04T05:09:15.845Z,17.57
2018-05-04T05:11:15.787Z,17.51
2018-05-04T05:12:15.818Z,17.51
2018-05-04T05:13:15.755Z,17.49
2018-05-04T05:14:15.817Z,17.60
2018-05-04T05:15:15.815Z,17.57
2018-05-04T05:16:15.855Z,17.47
2018-05-04T05:17:15.803Z,17.60
2018-05-04T05:18:15.853Z,17.62
2018-05-04T05:19:15.882Z,17.70
2018-05-04T05:20:15.860Z,17.73
2018-05-04T05:21:15.849Z,17.80
2018-05-04T05:22:15.861Z,17.83
2018-05-04T05:23:15.877Z,17.80
2018-05-04T05:24:15.896Z,17.81
2018-05-04T05:25:15.885Z,17.73
2018-05-04T05:26:15.913Z,17.65
2018-05-04T05:27:15.910Z,17.71
2018-05-04T05:28:15.930Z,17.83
2018-05-04T05:29:15.929Z,17.81
2018-05-04T05:30:15.930Z,17.86
2018-05-04T05:31:15.944Z,17.99
2018-05-04T05:32:15.953Z,18.05
2018-05-04T05:33:15.960Z,18.02
2018-05-04T05:34:15.996Z,18.11
2018-05-04T05:35:15.981Z,17.95
2018-05-04T05:36:15.992Z,17.99
2018-05-04T05:37:16.017Z,18.07
2018-05-04T05:38:16.030Z,18.19
2018-05-04T05:39:16.020Z,18.23
2018-05-04T05:40:16.030Z,18.25
2018-05-04T05:41:16.044Z,18.01
2018-05-04T05:42:16.068Z,18.05
2018-05-04T05:43:16.082Z,18.13
2018-05-04T05:44:16.088Z,18.07
2018-05-04T05:45:16.097Z,18.16
2018-05-04T05:46:16.093Z,18.23
2018-05-04T05:47:16.105Z,18.19
2018-05-04T05:48:16.142Z,18.13
2018-05-04T05:49:16.250Z,18.21
2018-05-04T05:50:16.289Z,18.05
2018-05-04T05:51:16.168Z,18.14
2018-05-04T05:52:16.181Z,18.23
2018-05-04T05:53:16.236Z,18.38
2018-05-04T05:54:16.239Z,18.28
2018-05-04T05:55:16.191Z,18.38
2018-05-04T05:56:16.226Z,18.42
2018-05-04T05:57:16.203Z,18.34
2018-05-04T05:58:16.205Z,18.29
2018-05-04T05:59:16.236Z,18.23
2018-05-04T06:00:16.248Z,18.16
2018-05-04T06:01:16.250Z,18.04
2018-05-04T06:02:16.268Z,17.94
2018-05-04T06:04:16.350Z,17.79
2018-05-04T06:05:16.322Z,17.81
2018-05-04T06:06:16.292Z,17.74
2018-05-04T06:07:16.408Z,17.81
2018-05-04T06:08:16.308Z,17.68
2018-05-04T06:09:16.359Z,17.71
2018-05-04T06:10:16.511Z,17.87
2018-05-04T06:11:16.347Z,17.68
2018-05-04T06:12:16.371Z,17.68
2018-05-04T06:13:16.369Z,17.76
2018-05-04T06:14:16.474Z,17.65
2018-05-04T06:15:16.439Z,17.83
2018-05-04T06:17:16.438Z,17.80
2018-05-04T06:18:16.433Z,17.70
2018-05-04T06:21:16.434Z,17.62
2018-05-04T06:22:16.679Z,17.68
2018-05-04T06:23:16.454Z,17.63
2018-05-04T06:24:16.764Z,17.58
2018-05-04T06:25:16.685Z,17.62
2018-05-04T06:26:16.513Z,17.58
2018-05-04T06:27:16.940Z,17.62
2018-05-04T06:29:16.787Z,17.68
2018-05-04T06:30:16.615Z,17.76
2018-05-04T06:31:16.539Z,17.73
2018-05-04T06:32:16.615Z,17.60
2018-05-04T06:35:16.604Z,17.65
2018-05-04T06:36:16.607Z,17.65
2018-05-04T06:37:16.612Z,17.76
2018-05-04T06:38:16.635Z,17.76
2018-05-04T06:39:16.648Z,17.81
2018-05-04T06:40:16.650Z,17.81
2018-05-04T06:41:16.662Z,17.79
2018-05-04T06:42:16.670Z,17.80
2018-05-04T06:43:16.672Z,17.86
2018-05-04T06:44:16.694Z,17.94
2018-05-04T06:45:16.725Z,17.95
2018-05-04T06:47:16.711Z,17.99
2018-05-04T06:48:16.744Z,17.94
2018-05-04T06:49:16.756Z,17.98
2018-05-04T06:50:16.762Z,18.04
2018-05-04T06:51:16.750Z,17.92
2018-05-04T06:52:16.844Z,17.81
2018-05-04T06:53:16.796Z,17.77
2018-05-04T06:54:16.777Z,17.98
2018-05-04T06:55:16.802Z,17.98
2018-05-04T06:56:16.816Z,17.94
2018-05-04T06:57:16.806Z,17.94
2018-05-04T06:58:16.821Z,17.95
2018-05-04T06:59:16.893Z,17.84
2018-05-04T07:00:16.855Z,17.95
2018-05-04T07:01:16.870Z,18.01
2018-05-04T07:02:16.864Z,18.04
2018-05-04T07:03:16.955Z,18.11
2018-05-04T07:04:16.909Z,18.07
2018-05-04T07:05:16.893Z,18.13
2018-05-04T07:06:16.898Z,18.21
2018-05-04T07:07:16.914Z,18.16
2018-05-04T07:08:16.949Z,18.19
2018-05-04T07:09:16.928Z,18.23
2018-05-04T07:10:16.963Z,18.23
2018-05-04T07:11:17.006Z,18.25
2018-05-04T07:12:17.008Z,18.36
2018-05-04T07:13:17.006Z,18.39
2018-05-04T07:14:16.999Z,18.36
2018-05-04T07:15:17.001Z,18.41
2018-05-04T07:16:17.017Z,18.39
2018-05-04T07:18:17.017Z,18.49
2018-05-04T07:19:17.026Z,18.56
2018-05-04T07:20:17.277Z,18.49
2018-05-04T07:21:17.068Z,18.42
2018-05-04T07:22:17.109Z,18.54
2018-05-04T07:23:17.092Z,18.47
2018-05-04T07:24:17.108Z,18.59
2018-05-04T07:25:17.126Z,18.57
2018-05-04T07:26:17.184Z,18.59
2018-05-04T07:27:17.118Z,18.62
2018-05-04T07:28:17.127Z,18.69
2018-05-04T07:29:17.205Z,18.65
2018-05-04T07:30:17.166Z,18.71
2018-05-04T07:31:17.176Z,18.72
2018-05-04T07:32:17.168Z,18.72
2018-05-04T07:33:17.229Z,18.74
2018-05-04T07:34:17.181Z,18.71
2018-05-04T07:35:17.203Z,18.72
2018-05-04T07:36:17.225Z,18.72
2018-05-04T07:37:17.254Z,18.86
2018-05-04T07:38:17.231Z,18.90
2018-05-04T07:39:17.362Z,18.97
2018-05-04T07:40:17.284Z,18.93
2018-05-04T07:41:17.263Z,18.90
2018-05-04T07:42:17.326Z,18.94
2018-05-04T07:43:17.309Z,18.90
2018-05-04T07:46:17.382Z,18.96
2018-05-04T07:47:17.335Z,18.90
2018-05-04T07:48:17.468Z,18.96
2018-05-04T07:49:17.337Z,18.99
2018-05-04T07:50:17.369Z,19.02
2018-05-04T07:51:17.376Z,19.06
2018-05-04T07:52:17.377Z,19.07
2018-05-04T07:53:17.402Z,19.12
2018-05-04T07:54:17.419Z,19.05
2018-05-04T07:55:17.493Z,19.16
2018-05-04T07:56:17.416Z,19.21
2018-05-04T07:57:17.487Z,19.13
2018-05-04T07:58:17.475Z,19.15
2018-05-04T07:59:17.519Z,19.15
2018-05-04T08:00:17.491Z,19.20
2018-05-04T08:01:17.515Z,19.28
2018-05-04T08:02:17.487Z,19.31
2018-05-04T08:03:17.501Z,19.31
2018-05-04T08:04:17.564Z,19.38
2018-05-04T08:05:17.518Z,19.40
2018-05-04T08:06:17.521Z,19.38
2018-05-04T08:07:17.526Z,19.39
2018-05-04T08:08:17.545Z,19.45
2018-05-04T08:09:17.596Z,19.38
2018-05-04T08:10:17.563Z,19.34
2018-05-04T08:12:17.610Z,19.34
2018-05-04T08:13:17.630Z,19.39
2018-05-04T08:14:17.616Z,19.50
2018-05-04T08:15:17.627Z,19.52
2018-05-04T08:16:17.631Z,19.64
2018-05-04T08:17:17.642Z,19.50
2018-05-04T08:18:17.681Z,19.50
2018-05-04T08:19:17.668Z,19.50
2018-05-04T08:20:17.699Z,19.49
2018-05-04T08:21:17.730Z,19.65
2018-05-04T08:23:17.747Z,19.61
2018-05-04T08:24:17.794Z,19.75
2018-05-04T08:25:17.730Z,19.76
2018-05-04T08:26:17.779Z,19.75
2018-05-04T08:27:17.755Z,19.72
2018-05-04T08:28:17.759Z,19.70
2018-05-04T08:29:17.824Z,19.70
2018-05-04T08:30:17.788Z,19.65
2018-05-04T08:31:17.799Z,19.76
2018-05-04T08:32:17.892Z,19.85
2018-05-04T08:33:17.820Z,19.79
2018-05-04T08:34:17.958Z,19.79
2018-05-04T08:35:18.070Z,19.83
2018-05-04T08:36:17.881Z,19.92
2018-05-04T08:37:17.919Z,19.95
2018-05-04T08:38:17.886Z,19.90
2018-05-04T08:39:17.957Z,19.85
2018-05-04T08:40:17.932Z,19.89
2018-05-04T08:41:17.923Z,19.89
2018-05-04T08:42:17.914Z,19.92
2018-05-04T08:43:17.925Z,19.97
2018-05-04T08:44:17.943Z,19.95
2018-05-04T08:45:17.955Z,19.89
2018-05-04T08:46:17.955Z,20.00
2018-05-04T08:47:17.991Z,20.01
2018-05-04T08:48:18.029Z,20.07
2018-05-04T08:49:18.051Z,20.07
2018-05-04T08:50:18.029Z,20.04
2018-05-04T08:51:18.053Z,20.15
2018-05-04T08:52:18.032Z,20.15
2018-05-04T08:53:18.045Z,20.13
2018-05-04T08:54:18.129Z,20.19
2018-05-04T08:55:18.058Z,20.19
2018-05-04T08:56:18.162Z,20.12
2018-05-04T08:57:18.184Z,20.20
2018-05-04T08:58:18.127Z,20.07
2018-05-04T08:59:18.337Z,20.16
2018-05-04T09:00:18.112Z,20.17
2018-05-04T09:01:18.162Z,20.17
2018-05-04T09:02:18.177Z,20.20
2018-05-04T09:03:18.175Z,20.17
2018-05-04T09:04:18.177Z,20.30
2018-05-04T09:05:18.355Z,20.25
2018-05-04T09:06:18.241Z,20.25
2018-05-04T09:07:18.229Z,20.33
2018-05-04T09:08:18.406Z,20.40
2018-05-04T09:09:18.242Z,20.48
2018-05-04T09:10:18.228Z,20.42
2018-05-04T09:11:18.275Z,20.38
2018-05-04T09:12:18.295Z,20.46
2018-05-04T09:13:18.383Z,20.51
2018-05-04T09:14:18.274Z,20.50
2018-05-04T09:15:18.304Z,20.51
2018-05-04T09:16:18.390Z,20.56
2018-05-04T09:17:18.310Z,20.61
2018-05-04T09:18:18.334Z,20.63
2018-05-04T09:19:18.375Z,20.57
2018-05-04T09:20:18.355Z,20.69
2018-05-04T09:21:18.422Z,20.79
2018-05-04T09:22:18.391Z,20.73
2018-05-04T09:23:18.381Z,20.87
2018-05-04T09:24:18.397Z,20.96
2018-05-04T09:25:18.461Z,21.01
2018-05-04T09:26:18.473Z,21.01
2018-05-04T09:27:18.427Z,21.09
2018-05-04T09:28:18.465Z,21.18
2018-05-04T09:29:18.738Z,21.18
2018-05-04T09:30:18.495Z,21.26
2018-05-04T09:31:18.490Z,21.27
2018-05-04T09:32:18.511Z,21.26
2018-05-04T09:33:18.525Z,21.26
2018-05-04T09:34:18.624Z,21.24
2018-05-04T09:35:18.566Z,21.30
2018-05-04T09:36:18.575Z,21.38
2018-05-04T09:37:18.641Z,21.40
2018-05-04T09:38:18.592Z,21.40
2018-05-04T09:39:18.582Z,21.45
2018-05-04T09:40:18.584Z,21.49
2018-05-04T09:41:18.609Z,21.52
2018-05-04T09:42:18.612Z,21.59
2018-05-04T09:43:18.630Z,21.52
2018-05-04T09:44:18.632Z,21.63
2018-05-04T09:45:18.640Z,21.64
2018-05-04T09:46:18.822Z,21.55
2018-05-04T09:47:18.716Z,21.56
2018-05-04T09:48:18.693Z,21.61
2018-05-04T09:49:18.846Z,21.67
2018-05-04T09:50:18.779Z,21.79
2018-05-04T09:51:18.735Z,21.86
2018-05-04T09:52:18.749Z,21.89
2018-05-04T09:53:18.766Z,21.86
2018-05-04T09:54:18.818Z,21.86
2018-05-04T09:55:18.785Z,21.89
2018-05-04T09:56:18.973Z,21.90
2018-05-04T09:57:18.797Z,21.96
2018-05-04T09:58:18.796Z,22.05
2018-05-04T09:59:18.829Z,22.15
2018-05-04T10:00:18.813Z,22.17
2018-05-04T10:01:18.840Z,22.12
2018-05-04T10:02:18.851Z,22.14
2018-05-04T10:03:18.861Z,22.23
2018-05-04T10:04:18.904Z,22.30
2018-05-04T10:05:18.914Z,22.29
2018-05-04T10:06:19.057Z,22.36
2018-05-04T10:07:18.931Z,22.48
2018-05-04T10:08:19.029Z,22.49
2018-05-04T10:09:18.945Z,22.46
2018-05-04T10:10:18.977Z,22.42
2018-05-04T10:11:18.972Z,22.42
2018-05-04T10:12:18.963Z,22.51
2018-05-04T10:13:18.999Z,22.51
2018-05-04T10:14:19.078Z,22.49
2018-05-04T10:15:19.019Z,22.41
2018-05-04T10:16:19.056Z,22.45
2018-05-04T10:17:19.094Z,22.44
2018-05-04T10:18:19.109Z,22.35
2018-05-04T10:19:19.115Z,22.41
2018-05-04T10:20:19.126Z,22.42
2018-05-04T10:21:19.081Z,22.57
2018-05-04T10:22:19.124Z,22.41
2018-05-04T10:23:19.105Z,22.45
2018-05-04T10:24:19.111Z,22.46
2018-05-04T10:25:19.141Z,22.52
2018-05-04T10:26:19.251Z,22.63
2018-05-04T10:27:19.220Z,22.49
2018-05-04T10:28:19.236Z,22.41
2018-05-04T10:29:19.210Z,22.57
2018-05-04T10:30:19.255Z,22.66
2018-05-04T10:31:19.305Z,22.72
2018-05-04T10:32:19.289Z,22.79
2018-05-04T10:33:19.331Z,22.74
2018-05-04T10:34:19.248Z,22.74
2018-05-04T10:35:19.289Z,22.85
2018-05-04T10:36:19.281Z,22.89
2018-05-04T10:37:19.352Z,22.85
2018-05-04T10:38:19.342Z,22.81
2018-05-04T10:39:19.349Z,22.99
2018-05-04T10:40:19.377Z,23.09
2018-05-04T10:41:19.485Z,23.06
2018-05-04T10:42:19.559Z,23.23
2018-05-04T10:43:19.385Z,23.34
2018-05-04T10:44:19.392Z,23.41
2018-05-04T10:45:19.427Z,23.32
2018-05-04T10:46:19.496Z,23.45
2018-05-04T10:47:19.462Z,23.34
2018-05-04T10:48:19.460Z,23.38
2018-05-04T10:49:19.490Z,23.39
2018-05-04T10:51:19.473Z,23.72
2018-05-04T10:52:19.501Z,23.81
2018-05-04T10:53:19.505Z,23.92
2018-05-04T10:54:19.550Z,23.89
2018-05-04T10:55:19.536Z,23.97
2018-05-04T10:56:19.559Z,24.09
2018-05-04T10:57:19.549Z,24.19
2018-05-04T10:58:19.764Z,24.44
2018-05-04T10:59:19.681Z,24.55
2018-05-04T11:00:19.589Z,24.77
2018-05-04T11:01:19.723Z,24.83
2018-05-04T11:02:19.655Z,24.98
2018-05-04T11:03:19.676Z,25.19
2018-05-04T11:04:19.741Z,25.46
2018-05-04T11:05:19.745Z,25.72
2018-05-04T11:06:19.699Z,25.97
2018-05-04T11:07:19.741Z,26.36
2018-05-04T11:08:19.746Z,26.42
2018-05-04T11:09:19.805Z,26.46
2018-05-04T11:10:19.754Z,26.76
2018-05-04T11:11:19.831Z,27.16
2018-05-04T11:13:19.868Z,27.45
2018-05-04T11:14:19.816Z,27.65
2018-05-04T11:15:19.895Z,-40.00
2018-05-04T11:16:19.892Z,-40.00
2018-05-04T11:18:57.009Z,-40.00
2018-05-04T11:18:57.553Z,-40.00
2018-05-04T11:19:57.555Z,-40.00
2018-05-04T11:20:57.565Z,28.73
2018-05-04T11:21:57.610Z,28.88
2018-05-04T11:22:57.746Z,28.97
2018-05-04T11:24:57.916Z,29.14
2018-05-04T11:25:57.677Z,29.14
2018-05-04T11:27:57.757Z,29.15
2018-05-04T11:28:57.926Z,29.10
2018-05-04T11:30:57.837Z,29.07
2018-05-04T11:31:57.988Z,29.30
2018-05-04T11:35:57.981Z,29.21
2018-05-04T11:39:19.076Z,29.84
2018-05-04T11:41:58.118Z,30.29
2018-05-04T11:42:58.127Z,30.38
2018-05-04T11:43:58.187Z,30.21
2018-05-04T11:44:58.570Z,30.07
2018-05-04T11:46:59.369Z,30.34
2018-05-04T11:47:59.710Z,30.51
2018-05-04T11:49:58.595Z,31.07
2018-05-04T11:50:58.379Z,30.97
2018-05-04T11:51:58.345Z,30.94
2018-05-04T11:53:58.365Z,31.78
2018-05-04T11:54:58.632Z,31.69
2018-05-04T11:55:58.513Z,31.76
2018-05-04T11:56:58.566Z,31.50
2018-05-04T11:57:58.526Z,31.53
2018-05-04T11:58:58.678Z,31.60
2018-05-04T11:59:58.751Z,31.76
2018-05-04T12:00:58.640Z,31.42
2018-05-04T12:01:58.698Z,31.54
2018-05-04T12:02:59.142Z,31.71
2018-05-04T12:03:58.761Z,31.98
2018-05-04T12:06:58.753Z,32.54
2018-05-04T12:07:58.884Z,32.73
2018-05-04T12:09:59.054Z,32.24
2018-05-04T12:12:59.006Z,32.56
2018-05-04T12:16:59.236Z,32.80
2018-05-04T12:17:59.313Z,32.90
2018-05-04T12:18:59.391Z,33.12
2018-05-04T12:21:59.450Z,33.57
2018-05-04T12:24:59.533Z,33.41
2018-05-04T12:25:59.407Z,33.72
2018-05-04T12:27:01.422Z,33.87
2018-05-04T12:28:01.178Z,33.78
2018-05-04T12:29:59.526Z,33.75
2018-05-04T12:30:59.559Z,33.84
2018-05-04T12:33:00.606Z,33.60
2018-05-04T12:33:59.752Z,33.37
2018-05-04T12:34:59.970Z,33.34
2018-05-04T12:36:01.689Z,33.35
2018-05-04T12:38:02.445Z,33.09
2018-05-04T12:39:59.879Z,33.50
2018-05-04T12:40:59.929Z,33.65
2018-05-04T12:43:00.026Z,34.15
2018-05-04T12:44:00.082Z,34.16
2018-05-04T12:45:00.101Z,34.18
2018-05-04T12:49:00.146Z,34.64
2018-05-04T12:50:00.264Z,34.49
2018-05-04T12:52:00.392Z,34.19
2018-05-04T12:54:21.398Z,34.95
2018-05-04T12:55:00.452Z,35.06
2018-05-04T12:57:00.504Z,35.43
2018-05-04T12:58:00.560Z,35.18
2018-05-04T12:59:00.550Z,35.29
2018-05-04T13:00:00.491Z,35.34
2018-05-04T13:01:00.693Z,35.27
2018-05-04T13:04:00.827Z,35.58
2018-05-04T13:05:00.686Z,35.76
2018-05-04T13:06:00.752Z,35.85
2018-05-04T13:10:00.997Z,36.00
2018-05-04T13:13:01.063Z,36.00
2018-05-04T13:14:01.113Z,36.00
2018-05-04T13:15:01.170Z,35.87
2018-05-04T13:18:01.228Z,34.98
2018-05-04T13:19:01.314Z,35.32
2018-05-04T13:21:01.368Z,35.99
2018-05-04T13:23:01.354Z,36.40
2018-05-04T13:24:01.480Z,36.55
2018-05-04T13:25:01.532Z,36.62
2018-05-04T13:27:01.518Z,36.62
2018-05-04T13:28:22.570Z,36.48
2018-05-04T13:29:01.634Z,36.28
2018-05-04T13:33:01.737Z,37.21
2018-05-04T13:34:01.814Z,37.06
2018-05-04T13:38:01.891Z,36.23
2018-05-04T13:39:01.967Z,36.34
2018-05-04T13:40:02.107Z,36.46
2018-05-04T13:41:02.073Z,36.57
2018-05-04T13:42:02.027Z,36.35
2018-05-04T13:43:23.116Z,36.75
2018-05-04T13:44:02.190Z,36.93
2018-05-04T13:45:02.297Z,37.30
2018-05-04T13:46:02.341Z,37.60
2018-05-04T13:47:02.411Z,37.43
2018-05-04T13:48:02.339Z,37.43
2018-05-04T13:52:02.373Z,38.28
2018-05-04T13:54:23.515Z,38.97
2018-05-04T13:55:02.603Z,39.32
2018-05-04T13:57:02.637Z,39.28
2018-05-04T13:58:02.599Z,38.70
2018-05-04T13:59:02.731Z,38.37
2018-05-04T14:01:02.833Z,38.84
2018-05-04T14:02:02.851Z,39.54
2018-05-04T14:03:02.980Z,39.54
2018-05-04T14:04:02.970Z,39.56
2018-05-04T14:07:03.132Z,40.36
2018-05-04T14:09:24.129Z,40.19
2018-05-04T14:11:03.019Z,40.78
2018-05-04T14:13:03.262Z,41.66
2018-05-04T14:14:03.275Z,42.02
2018-05-04T14:17:24.483Z,42.49
2018-05-04T14:18:03.369Z,42.99
2018-05-04T14:19:03.346Z,43.06
2018-05-04T14:22:03.510Z,43.91
2018-05-04T14:25:03.632Z,43.87
2018-05-04T14:28:37.826Z,44.28
2018-05-04T14:29:36.024Z,45.07
2018-05-04T14:31:35.724Z,45.79
2018-05-04T14:32:35.764Z,45.58
2018-05-04T14:34:56.952Z,45.01
2018-05-04T14:36:35.858Z,44.70
2018-05-04T14:37:57.081Z,44.86
2018-05-04T14:38:36.074Z,45.27
2018-05-04T14:42:35.992Z,43.55